Terminal Aerodrome Forecast
Issued by NWS

Home | Current Version | Previous Version | Text Only | Print | Product List | Glossary On
Versions: 1 2 3 4 5 6 7 8 9 10 11 12 13 14 15 16
000
FTUS45 KTFX 230800 AAA
TAFLWT
TAF AMD
KLWT 230826Z 2308/2406 29011KT P6SM -SHRA SCT006 OVC025
      TEMPO 2308/2312 3SM RA BR OVC006
     FM231300 27012KT P6SM SCT015 BKN150
     FM240200 28012KT P6SM BKN150=

USA.gov is the U.S. government's official web portal to all federal, state and local government web resources and services.